sensor_id;sensor_type;location;lat;lon;timestamp;P1;durP1;ratioP1;P2;durP2;ratioP2
44658;SDS011;30378;50.186;8.644;2022-10-16T00:00:45;3.55;;;1.48;;
44658;SDS011;30378;50.186;8.644;2022-10-16T00:03:13;4.28;;;1.45;;
44658;SDS011;30378;50.186;8.644;2022-10-16T00:08:08;4.18;;;1.15;;
44658;SDS011;30378;50.186;8.644;2022-10-16T00:10:37;3.63;;;1.17;;
44658;SDS011;30378;50.186;8.644;2022-10-16T00:13:05;3.03;;;1.55;;
44658;SDS011;30378;50.186;8.644;2022-10-16T00:15:33;5.07;;;2.22;;
44658;SDS011;30378;50.186;8.644;2022-10-16T00:18:03;3.70;;;1.67;;
44658;SDS011;30378;50.186;8.644;2022-10-16T00:20:33;4.63;;;1.95;;
44658;SDS011;30378;50.186;8.644;2022-10-16T00:23:01;4.65;;;2.10;;
44658;SDS011;30378;50.186;8.644;2022-10-16T00:27:55;4.22;;;1.95;;
44658;SDS011;30378;50.186;8.644;2022-10-16T00:32:49;5.80;;;2.60;;
44658;SDS011;30378;50.186;8.644;2022-10-16T00:37:43;4.13;;;2.47;;
44658;SDS011;30378;50.186;8.644;2022-10-16T00:42:37;5.70;;;2.28;;
44658;SDS011;30378;50.186;8.644;2022-10-16T00:45:04;3.88;;;1.70;;
44658;SDS011;30378;50.186;8.644;2022-10-16T00:47:37;5.32;;;2.08;;
44658;SDS011;30378;50.186;8.644;2022-10-16T00:50:13;7.13;;;3.67;;
44658;SDS011;30378;50.186;8.644;2022-10-16T00:52:47;12.82;;;4.60;;
44658;SDS011;30378;50.186;8.644;2022-10-16T00:55:16;12.18;;;5.18;;
44658;SDS011;30378;50.186;8.644;2022-10-16T00:57:44;10.60;;;4.32;;
44658;SDS011;30378;50.186;8.644;2022-10-16T01:00:14;9.82;;;4.82;;
44658;SDS011;30378;50.186;8.644;2022-10-16T01:02:44;11.88;;;4.70;;
44658;SDS011;30378;50.186;8.644;2022-10-16T01:05:11;11.38;;;5.25;;
44658;SDS011;30378;50.186;8.644;2022-10-16T01:18:32;12.38;;;5.18;;
44658;SDS011;30378;50.186;8.644;2022-10-16T01:21:30;9.98;;;5.10;;
44658;SDS011;30378;50.186;8.644;2022-10-16T01:27:09;11.60;;;5.05;;
44658;SDS011;30378;50.186;8.644;2022-10-16T01:37:46;14.50;;;5.85;;
44658;SDS011;30378;50.186;8.644;2022-10-16T01:40:27;15.63;;;7.07;;
44658;SDS011;30378;50.186;8.644;2022-10-16T01:43:03;15.77;;;7.57;;
44658;SDS011;30378;50.186;8.644;2022-10-16T01:45:34;14.15;;;7.20;;
44658;SDS011;30378;50.186;8.644;2022-10-16T01:48:03;15.80;;;7.25;;
44658;SDS011;30378;50.186;8.644;2022-10-16T01:50:35;17.38;;;8.70;;
44658;SDS011;30378;50.186;8.644;2022-10-16T01:53:07;12.90;;;6.18;;
44658;SDS011;30378;50.186;8.644;2022-10-16T01:55:38;15.20;;;6.90;;
44658;SDS011;30378;50.186;8.644;2022-10-16T01:58:12;18.15;;;7.60;;
44658;SDS011;30378;50.186;8.644;2022-10-16T02:00:41;17.92;;;7.72;;
44658;SDS011;30378;50.186;8.644;2022-10-16T02:03:11;17.25;;;7.95;;
44658;SDS011;30378;50.186;8.644;2022-10-16T02:05:41;17.00;;;8.30;;
44658;SDS011;30378;50.186;8.644;2022-10-16T02:08:22;13.57;;;6.97;;
44658;SDS011;30378;50.186;8.644;2022-10-16T02:10:57;13.48;;;7.55;;
44658;SDS011;30378;50.186;8.644;2022-10-16T02:16:05;12.95;;;6.40;;
44658;SDS011;30378;50.186;8.644;2022-10-16T02:18:33;13.98;;;6.78;;
44658;SDS011;30378;50.186;8.644;2022-10-16T02:21:02;15.70;;;7.25;;
44658;SDS011;30378;50.186;8.644;2022-10-16T02:24:02;11.95;;;5.82;;
44658;SDS011;30378;50.186;8.644;2022-10-16T02:27:26;12.00;;;5.82;;
44658;SDS011;30378;50.186;8.644;2022-10-16T02:29:47;12.93;;;5.57;;
44658;SDS011;30378;50.186;8.644;2022-10-16T02:32:21;12.35;;;6.57;;
44658;SDS011;30378;50.186;8.644;2022-10-16T02:34:51;11.18;;;5.28;;
44658;SDS011;30378;50.186;8.644;2022-10-16T02:37:18;11.88;;;5.78;;
44658;SDS011;30378;50.186;8.644;2022-10-16T02:39:46;11.00;;;5.45;;
44658;SDS011;30378;50.186;8.644;2022-10-16T02:44:40;11.02;;;4.72;;
44658;SDS011;30378;50.186;8.644;2022-10-16T02:47:07;8.02;;;4.55;;
44658;SDS011;30378;50.186;8.644;2022-10-16T02:49:34;8.43;;;3.65;;
44658;SDS011;30378;50.186;8.644;2022-10-16T02:52:01;7.75;;;4.07;;
44658;SDS011;30378;50.186;8.644;2022-10-16T02:54:28;8.55;;;3.55;;
44658;SDS011;30378;50.186;8.644;2022-10-16T02:59:22;6.28;;;3.45;;
44658;SDS011;30378;50.186;8.644;2022-10-16T03:01:49;6.32;;;3.38;;
44658;SDS011;30378;50.186;8.644;2022-10-16T03:06:43;7.20;;;2.60;;
44658;SDS011;30378;50.186;8.644;2022-10-16T03:11:36;5.95;;;3.20;;
44658;SDS011;30378;50.186;8.644;2022-10-16T03:14:03;4.15;;;2.50;;
44658;SDS011;30378;50.186;8.644;2022-10-16T03:18:57;5.32;;;2.13;;
44658;SDS011;30378;50.186;8.644;2022-10-16T03:21:28;5.35;;;2.65;;
44658;SDS011;30378;50.186;8.644;2022-10-16T03:23:55;5.05;;;1.90;;
44658;SDS011;30378;50.186;8.644;2022-10-16T03:26:22;6.03;;;2.70;;
44658;SDS011;30378;50.186;8.644;2022-10-16T03:31:15;4.95;;;2.30;;
44658;SDS011;30378;50.186;8.644;2022-10-16T03:33:42;6.85;;;2.45;;
44658;SDS011;30378;50.186;8.644;2022-10-16T03:36:09;5.47;;;2.60;;
44658;SDS011;30378;50.186;8.644;2022-10-16T03:38:36;4.53;;;1.95;;
44658;SDS011;30378;50.186;8.644;2022-10-16T03:43:30;5.07;;;2.28;;
44658;SDS011;30378;50.186;8.644;2022-10-16T03:48:24;7.05;;;2.13;;
44658;SDS011;30378;50.186;8.644;2022-10-16T03:53:18;4.82;;;2.15;;
44658;SDS011;30378;50.186;8.644;2022-10-16T03:55:45;4.60;;;2.25;;
44658;SDS011;30378;50.186;8.644;2022-10-16T04:00:42;6.60;;;2.83;;
44658;SDS011;30378;50.186;8.644;2022-10-16T04:03:10;4.32;;;2.67;;
44658;SDS011;30378;50.186;8.644;2022-10-16T04:05:37;5.07;;;2.40;;
44658;SDS011;30378;50.186;8.644;2022-10-16T04:08:05;5.32;;;1.83;;
44658;SDS011;30378;50.186;8.644;2022-10-16T04:10:32;6.10;;;1.88;;
44658;SDS011;30378;50.186;8.644;2022-10-16T04:15:26;3.92;;;2.08;;
44658;SDS011;30378;50.186;8.644;2022-10-16T04:17:53;8.35;;;2.20;;
44658;SDS011;30378;50.186;8.644;2022-10-16T04:22:47;6.75;;;2.10;;
44658;SDS011;30378;50.186;8.644;2022-10-16T04:27:41;3.92;;;1.80;;
44658;SDS011;30378;50.186;8.644;2022-10-16T04:30:09;7.72;;;3.00;;
44658;SDS011;30378;50.186;8.644;2022-10-16T04:32:36;5.00;;;2.45;;
44658;SDS011;30378;50.186;8.644;2022-10-16T04:35:03;4.53;;;2.03;;
44658;SDS011;30378;50.186;8.644;2022-10-16T04:37:30;4.97;;;2.28;;
44658;SDS011;30378;50.186;8.644;2022-10-16T04:42:24;3.60;;;1.92;;
44658;SDS011;30378;50.186;8.644;2022-10-16T04:47:19;6.80;;;2.30;;
44658;SDS011;30378;50.186;8.644;2022-10-16T04:52:13;6.25;;;2.72;;
44658;SDS011;30378;50.186;8.644;2022-10-16T04:57:07;4.53;;;1.90;;
44658;SDS011;30378;50.186;8.644;2022-10-16T04:59:34;4.65;;;2.40;;
44658;SDS011;30378;50.186;8.644;2022-10-16T05:02:01;3.72;;;2.35;;
44658;SDS011;30378;50.186;8.644;2022-10-16T05:06:54;5.78;;;2.25;;
44658;SDS011;30378;50.186;8.644;2022-10-16T05:11:48;7.25;;;2.30;;
44658;SDS011;30378;50.186;8.644;2022-10-16T05:16:42;5.32;;;2.80;;
44658;SDS011;30378;50.186;8.644;2022-10-16T05:19:09;5.82;;;2.28;;
44658;SDS011;30378;50.186;8.644;2022-10-16T05:21:53;6.78;;;2.25;;
44658;SDS011;30378;50.186;8.644;2022-10-16T05:24:20;6.13;;;2.22;;
44658;SDS011;30378;50.186;8.644;2022-10-16T05:26:47;4.68;;;2.55;;
44658;SDS011;30378;50.186;8.644;2022-10-16T05:31:41;5.05;;;2.50;;
44658;SDS011;30378;50.186;8.644;2022-10-16T05:34:08;5.75;;;1.80;;
44658;SDS011;30378;50.186;8.644;2022-10-16T05:36:35;5.22;;;3.03;;
44658;SDS011;30378;50.186;8.644;2022-10-16T05:39:02;4.95;;;2.30;;
44658;SDS011;30378;50.186;8.644;2022-10-16T05:41:29;4.63;;;2.00;;
44658;SDS011;30378;50.186;8.644;2022-10-16T05:46:23;6.72;;;2.35;;
44658;SDS011;30378;50.186;8.644;2022-10-16T05:48:51;4.53;;;2.05;;
44658;SDS011;30378;50.186;8.644;2022-10-16T05:51:19;6.80;;;2.88;;
44658;SDS011;30378;50.186;8.644;2022-10-16T05:53:46;6.30;;;2.20;;
44658;SDS011;30378;50.186;8.644;2022-10-16T05:56:13;4.05;;;1.88;;
44658;SDS011;30378;50.186;8.644;2022-10-16T05:58:41;5.70;;;2.25;;
44658;SDS011;30378;50.186;8.644;2022-10-16T06:01:12;5.13;;;2.60;;
44658;SDS011;30378;50.186;8.644;2022-10-16T06:03:43;6.80;;;2.90;;
44658;SDS011;30378;50.186;8.644;2022-10-16T06:06:15;5.57;;;2.58;;
44658;SDS011;30378;50.186;8.644;2022-10-16T06:08:43;5.72;;;2.45;;
44658;SDS011;30378;50.186;8.644;2022-10-16T06:11:14;5.55;;;2.85;;
44658;SDS011;30378;50.186;8.644;2022-10-16T06:13:43;6.53;;;2.40;;
44658;SDS011;30378;50.186;8.644;2022-10-16T06:16:12;5.43;;;2.03;;
44658;SDS011;30378;50.186;8.644;2022-10-16T06:18:39;4.88;;;2.28;;
44658;SDS011;30378;50.186;8.644;2022-10-16T06:21:14;5.72;;;2.30;;
44658;SDS011;30378;50.186;8.644;2022-10-16T06:23:43;5.07;;;2.38;;
44658;SDS011;30378;50.186;8.644;2022-10-16T06:26:13;4.45;;;2.08;;
44658;SDS011;30378;50.186;8.644;2022-10-16T06:28:42;5.50;;;2.85;;
44658;SDS011;30378;50.186;8.644;2022-10-16T06:33:37;3.78;;;2.10;;
44658;SDS011;30378;50.186;8.644;2022-10-16T06:36:06;4.07;;;2.13;;
44658;SDS011;30378;50.186;8.644;2022-10-16T06:38:38;4.60;;;1.77;;
44658;SDS011;30378;50.186;8.644;2022-10-16T06:41:06;5.70;;;2.15;;
44658;SDS011;30378;50.186;8.644;2022-10-16T06:43:34;5.95;;;2.15;;
44658;SDS011;30378;50.186;8.644;2022-10-16T06:46:04;5.60;;;2.67;;
44658;SDS011;30378;50.186;8.644;2022-10-16T06:48:34;5.78;;;2.72;;
44658;SDS011;30378;50.186;8.644;2022-10-16T06:51:04;6.63;;;2.83;;
44658;SDS011;30378;50.186;8.644;2022-10-16T06:53:34;6.13;;;2.25;;
44658;SDS011;30378;50.186;8.644;2022-10-16T06:56:11;5.32;;;2.20;;
44658;SDS011;30378;50.186;8.644;2022-10-16T06:58:40;6.78;;;2.78;;
44658;SDS011;30378;50.186;8.644;2022-10-16T07:01:08;5.40;;;2.80;;
44658;SDS011;30378;50.186;8.644;2022-10-16T07:03:37;5.35;;;2.40;;
44658;SDS011;30378;50.186;8.644;2022-10-16T07:06:07;6.13;;;2.72;;
44658;SDS011;30378;50.186;8.644;2022-10-16T07:08:37;5.22;;;2.03;;
44658;SDS011;30378;50.186;8.644;2022-10-16T07:11:06;4.88;;;2.47;;
44658;SDS011;30378;50.186;8.644;2022-10-16T07:13:36;5.25;;;2.10;;
44658;SDS011;30378;50.186;8.644;2022-10-16T07:16:11;6.05;;;2.17;;
44658;SDS011;30378;50.186;8.644;2022-10-16T07:18:43;6.05;;;3.20;;
44658;SDS011;30378;50.186;8.644;2022-10-16T07:21:13;8.88;;;2.42;;
44658;SDS011;30378;50.186;8.644;2022-10-16T07:23:49;7.30;;;2.63;;
44658;SDS011;30378;50.186;8.644;2022-10-16T07:26:17;5.30;;;2.45;;
44658;SDS011;30378;50.186;8.644;2022-10-16T07:28:44;6.45;;;2.70;;
44658;SDS011;30378;50.186;8.644;2022-10-16T07:33:42;4.82;;;1.90;;
44658;SDS011;30378;50.186;8.644;2022-10-16T07:36:11;5.00;;;2.75;;
44658;SDS011;30378;50.186;8.644;2022-10-16T07:38:41;3.53;;;2.10;;
44658;SDS011;30378;50.186;8.644;2022-10-16T07:41:09;5.15;;;2.10;;
44658;SDS011;30378;50.186;8.644;2022-10-16T07:43:38;6.60;;;1.70;;
44658;SDS011;30378;50.186;8.644;2022-10-16T07:46:06;6.70;;;2.30;;
44658;SDS011;30378;50.186;8.644;2022-10-16T07:48:33;5.32;;;2.40;;
44658;SDS011;30378;50.186;8.644;2022-10-16T07:51:03;5.13;;;2.20;;
44658;SDS011;30378;50.186;8.644;2022-10-16T07:53:31;6.25;;;2.17;;
44658;SDS011;30378;50.186;8.644;2022-10-16T07:55:59;4.57;;;2.38;;
44658;SDS011;30378;50.186;8.644;2022-10-16T07:58:27;4.72;;;1.83;;
44658;SDS011;30378;50.186;8.644;2022-10-16T08:00:55;4.32;;;2.42;;
44658;SDS011;30378;50.186;8.644;2022-10-16T08:03:26;5.18;;;1.88;;
44658;SDS011;30378;50.186;8.644;2022-10-16T08:05:53;5.25;;;2.60;;
44658;SDS011;30378;50.186;8.644;2022-10-16T08:08:20;6.00;;;2.28;;
44658;SDS011;30378;50.186;8.644;2022-10-16T08:10:47;5.72;;;2.10;;
44658;SDS011;30378;50.186;8.644;2022-10-16T08:13:14;5.00;;;2.33;;
44658;SDS011;30378;50.186;8.644;2022-10-16T08:15:41;6.68;;;2.40;;
44658;SDS011;30378;50.186;8.644;2022-10-16T08:18:13;5.25;;;2.38;;
44658;SDS011;30378;50.186;8.644;2022-10-16T08:20:41;5.07;;;3.10;;
44658;SDS011;30378;50.186;8.644;2022-10-16T08:23:09;5.97;;;2.28;;
44658;SDS011;30378;50.186;8.644;2022-10-16T08:25:38;4.38;;;2.50;;
44658;SDS011;30378;50.186;8.644;2022-10-16T08:28:06;5.72;;;3.00;;
44658;SDS011;30378;50.186;8.644;2022-10-16T08:30:34;5.63;;;2.58;;
44658;SDS011;30378;50.186;8.644;2022-10-16T08:33:02;10.77;;;3.63;;
44658;SDS011;30378;50.186;8.644;2022-10-16T08:35:28;6.10;;;3.15;;
44658;SDS011;30378;50.186;8.644;2022-10-16T08:37:55;11.70;;;3.83;;
44658;SDS011;30378;50.186;8.644;2022-10-16T08:40:26;8.55;;;3.95;;
44658;SDS011;30378;50.186;8.644;2022-10-16T08:45:43;12.38;;;3.70;;
44658;SDS011;30378;50.186;8.644;2022-10-16T08:48:45;6.78;;;2.90;;
44658;SDS011;30378;50.186;8.644;2022-10-16T08:51:26;4.72;;;2.28;;
44658;SDS011;30378;50.186;8.644;2022-10-16T08:53:56;5.35;;;2.45;;
44658;SDS011;30378;50.186;8.644;2022-10-16T08:56:25;7.68;;;2.53;;
44658;SDS011;30378;50.186;8.644;2022-10-16T08:58:53;8.65;;;2.85;;
44658;SDS011;30378;50.186;8.644;2022-10-16T09:01:25;6.88;;;2.85;;
44658;SDS011;30378;50.186;8.644;2022-10-16T09:07:12;6.32;;;2.03;;
44658;SDS011;30378;50.186;8.644;2022-10-16T09:15:24;6.53;;;2.55;;
44658;SDS011;30378;50.186;8.644;2022-10-16T09:23:45;4.53;;;2.03;;
44658;SDS011;30378;50.186;8.644;2022-10-16T09:26:13;2.17;;;1.08;;
44658;SDS011;30378;50.186;8.644;2022-10-16T09:28:41;4.70;;;2.15;;
44658;SDS011;30378;50.186;8.644;2022-10-16T09:31:18;4.55;;;2.03;;
44658;SDS011;30378;50.186;8.644;2022-10-16T09:33:48;4.35;;;2.42;;
44658;SDS011;30378;50.186;8.644;2022-10-16T09:36:20;4.97;;;2.38;;
44658;SDS011;30378;50.186;8.644;2022-10-16T09:38:49;4.50;;;2.10;;
44658;SDS011;30378;50.186;8.644;2022-10-16T09:41:20;3.25;;;1.95;;
44658;SDS011;30378;50.186;8.644;2022-10-16T09:43:55;4.90;;;2.28;;
44658;SDS011;30378;50.186;8.644;2022-10-16T09:46:26;3.80;;;1.98;;
44658;SDS011;30378;50.186;8.644;2022-10-16T09:49:02;3.55;;;1.65;;
44658;SDS011;30378;50.186;8.644;2022-10-16T09:51:45;4.97;;;2.30;;
44658;SDS011;30378;50.186;8.644;2022-10-16T09:54:14;4.43;;;1.90;;
44658;SDS011;30378;50.186;8.644;2022-10-16T09:56:43;7.05;;;2.50;;
44658;SDS011;30378;50.186;8.644;2022-10-16T09:59:14;5.10;;;2.47;;
44658;SDS011;30378;50.186;8.644;2022-10-16T10:01:48;4.95;;;2.00;;
44658;SDS011;30378;50.186;8.644;2022-10-16T10:04:21;4.13;;;2.33;;
44658;SDS011;30378;50.186;8.644;2022-10-16T10:06:53;5.53;;;2.28;;
44658;SDS011;30378;50.186;8.644;2022-10-16T10:09:23;3.95;;;2.10;;
44658;SDS011;30378;50.186;8.644;2022-10-16T10:11:55;4.55;;;2.42;;
44658;SDS011;30378;50.186;8.644;2022-10-16T10:14:34;5.18;;;2.90;;
44658;SDS011;30378;50.186;8.644;2022-10-16T10:17:09;6.00;;;2.63;;
44658;SDS011;30378;50.186;8.644;2022-10-16T10:19:54;5.80;;;3.17;;
44658;SDS011;30378;50.186;8.644;2022-10-16T10:22:24;4.38;;;2.33;;
44658;SDS011;30378;50.186;8.644;2022-10-16T10:32:51;4.22;;;1.70;;
44658;SDS011;30378;50.186;8.644;2022-10-16T10:46:47;3.17;;;1.38;;
44658;SDS011;30378;50.186;8.644;2022-10-16T10:57:35;3.33;;;0.85;;
44658;SDS011;30378;50.186;8.644;2022-10-16T11:00:28;1.75;;;1.08;;
44658;SDS011;30378;50.186;8.644;2022-10-16T11:05:56;2.25;;;0.73;;
44658;SDS011;30378;50.186;8.644;2022-10-16T11:08:35;3.40;;;1.63;;
44658;SDS011;30378;50.186;8.644;2022-10-16T11:16:28;0.95;;;0.43;;
44658;SDS011;30378;50.186;8.644;2022-10-16T11:22:16;4.38;;;1.25;;
44658;SDS011;30378;50.186;8.644;2022-10-16T11:25:13;2.15;;;0.73;;
44658;SDS011;30378;50.186;8.644;2022-10-16T11:27:50;1.63;;;0.60;;
44658;SDS011;30378;50.186;8.644;2022-10-16T11:30:24;5.47;;;1.23;;
44658;SDS011;30378;50.186;8.644;2022-10-16T11:35:43;2.90;;;1.73;;
44658;SDS011;30378;50.186;8.644;2022-10-16T11:38:27;2.40;;;1.10;;
44658;SDS011;30378;50.186;8.644;2022-10-16T11:41:02;3.58;;;1.20;;
44658;SDS011;30378;50.186;8.644;2022-10-16T11:43:38;2.83;;;1.35;;
44658;SDS011;30378;50.186;8.644;2022-10-16T11:46:16;3.17;;;1.50;;
44658;SDS011;30378;50.186;8.644;2022-10-16T11:54:47;5.22;;;2.35;;
44658;SDS011;30378;50.186;8.644;2022-10-16T11:57:32;6.65;;;3.05;;
44658;SDS011;30378;50.186;8.644;2022-10-16T12:00:10;7.05;;;3.50;;
44658;SDS011;30378;50.186;8.644;2022-10-16T12:08:29;5.20;;;3.10;;
44658;SDS011;30378;50.186;8.644;2022-10-16T12:11:05;6.03;;;3.42;;
44658;SDS011;30378;50.186;8.644;2022-10-16T12:16:55;4.97;;;3.30;;
44658;SDS011;30378;50.186;8.644;2022-10-16T12:19:26;4.53;;;3.83;;
44658;SDS011;30378;50.186;8.644;2022-10-16T12:21:59;4.15;;;2.63;;
44658;SDS011;30378;50.186;8.644;2022-10-16T12:24:38;3.90;;;2.83;;
44658;SDS011;30378;50.186;8.644;2022-10-16T12:29:58;3.35;;;2.50;;
44658;SDS011;30378;50.186;8.644;2022-10-16T12:32:37;4.93;;;2.78;;
44658;SDS011;30378;50.186;8.644;2022-10-16T12:35:33;3.65;;;2.58;;
44658;SDS011;30378;50.186;8.644;2022-10-16T12:38:19;5.35;;;3.22;;
44658;SDS011;30378;50.186;8.644;2022-10-16T12:41:00;5.10;;;3.72;;
44658;SDS011;30378;50.186;8.644;2022-10-16T12:45:59;3.60;;;2.50;;
44658;SDS011;30378;50.186;8.644;2022-10-16T12:48:31;3.35;;;2.85;;
44658;SDS011;30378;50.186;8.644;2022-10-16T12:51:11;3.22;;;2.75;;
44658;SDS011;30378;50.186;8.644;2022-10-16T13:13:36;2.72;;;2.10;;
44658;SDS011;30378;50.186;8.644;2022-10-16T13:22:59;2.78;;;0.93;;
44658;SDS011;30378;50.186;8.644;2022-10-16T13:28:40;2.38;;;1.15;;
44658;SDS011;30378;50.186;8.644;2022-10-16T13:31:12;2.97;;;1.20;;
44658;SDS011;30378;50.186;8.644;2022-10-16T13:33:45;2.13;;;1.55;;
44658;SDS011;30378;50.186;8.644;2022-10-16T13:36:19;2.30;;;1.10;;
44658;SDS011;30378;50.186;8.644;2022-10-16T13:44:31;2.80;;;1.52;;
44658;SDS011;30378;50.186;8.644;2022-10-16T13:47:15;2.50;;;1.10;;
44658;SDS011;30378;50.186;8.644;2022-10-16T13:50:06;2.35;;;1.30;;
44658;SDS011;30378;50.186;8.644;2022-10-16T13:52:39;3.78;;;1.30;;
44658;SDS011;30378;50.186;8.644;2022-10-16T13:55:13;3.40;;;1.08;;
44658;SDS011;30378;50.186;8.644;2022-10-16T13:57:41;1.85;;;1.20;;
44658;SDS011;30378;50.186;8.644;2022-10-16T14:00:22;2.25;;;1.38;;
44658;SDS011;30378;50.186;8.644;2022-10-16T14:02:52;1.88;;;0.80;;
44658;SDS011;30378;50.186;8.644;2022-10-16T14:05:24;2.13;;;1.40;;
44658;SDS011;30378;50.186;8.644;2022-10-16T14:07:51;3.30;;;0.77;;
44658;SDS011;30378;50.186;8.644;2022-10-16T14:10:25;2.38;;;0.95;;
44658;SDS011;30378;50.186;8.644;2022-10-16T14:13:03;1.13;;;0.65;;
44658;SDS011;30378;50.186;8.644;2022-10-16T14:15:33;1.90;;;0.90;;
44658;SDS011;30378;50.186;8.644;2022-10-16T14:18:02;1.85;;;0.57;;
44658;SDS011;30378;50.186;8.644;2022-10-16T14:20:31;3.28;;;1.15;;
44658;SDS011;30378;50.186;8.644;2022-10-16T14:23:02;1.92;;;1.25;;
44658;SDS011;30378;50.186;8.644;2022-10-16T14:25:32;4.10;;;0.93;;
44658;SDS011;30378;50.186;8.644;2022-10-16T14:30:33;2.03;;;0.85;;
44658;SDS011;30378;50.186;8.644;2022-10-16T14:33:06;2.50;;;1.40;;
44658;SDS011;30378;50.186;8.644;2022-10-16T14:35:46;4.47;;;1.10;;
44658;SDS011;30378;50.186;8.644;2022-10-16T14:38:56;2.55;;;1.42;;
44658;SDS011;30378;50.186;8.644;2022-10-16T14:41:33;2.88;;;1.08;;
44658;SDS011;30378;50.186;8.644;2022-10-16T14:44:10;1.75;;;0.70;;
44658;SDS011;30378;50.186;8.644;2022-10-16T14:46:41;1.98;;;1.25;;
44658;SDS011;30378;50.186;8.644;2022-10-16T14:51:37;2.63;;;0.90;;
44658;SDS011;30378;50.186;8.644;2022-10-16T14:54:08;2.30;;;1.45;;
44658;SDS011;30378;50.186;8.644;2022-10-16T15:01:57;3.08;;;1.60;;
44658;SDS011;30378;50.186;8.644;2022-10-16T15:04:24;2.80;;;1.40;;
44658;SDS011;30378;50.186;8.644;2022-10-16T15:06:51;2.30;;;1.55;;
44658;SDS011;30378;50.186;8.644;2022-10-16T15:09:18;5.10;;;1.20;;
44658;SDS011;30378;50.186;8.644;2022-10-16T15:11:45;3.38;;;1.85;;
44658;SDS011;30378;50.186;8.644;2022-10-16T15:14:13;2.20;;;1.65;;
44658;SDS011;30378;50.186;8.644;2022-10-16T15:16:45;2.35;;;1.60;;
44658;SDS011;30378;50.186;8.644;2022-10-16T15:19:12;5.20;;;1.60;;
44658;SDS011;30378;50.186;8.644;2022-10-16T15:21:39;8.23;;;2.13;;
44658;SDS011;30378;50.186;8.644;2022-10-16T15:24:08;7.07;;;1.73;;
44658;SDS011;30378;50.186;8.644;2022-10-16T15:26:39;4.15;;;1.88;;
44658;SDS011;30378;50.186;8.644;2022-10-16T15:29:06;3.28;;;1.50;;
44658;SDS011;30378;50.186;8.644;2022-10-16T15:31:34;3.90;;;1.35;;
44658;SDS011;30378;50.186;8.644;2022-10-16T15:34:01;3.65;;;1.65;;
44658;SDS011;30378;50.186;8.644;2022-10-16T15:36:34;3.05;;;1.80;;
44658;SDS011;30378;50.186;8.644;2022-10-16T15:39:04;3.42;;;1.48;;
44658;SDS011;30378;50.186;8.644;2022-10-16T15:41:45;3.03;;;1.70;;
44658;SDS011;30378;50.186;8.644;2022-10-16T15:44:20;4.63;;;2.00;;
44658;SDS011;30378;50.186;8.644;2022-10-16T15:46:49;8.35;;;3.17;;
44658;SDS011;30378;50.186;8.644;2022-10-16T15:49:16;4.95;;;1.73;;
44658;SDS011;30378;50.186;8.644;2022-10-16T15:51:43;2.63;;;1.40;;
44658;SDS011;30378;50.186;8.644;2022-10-16T15:54:12;4.72;;;2.28;;
44658;SDS011;30378;50.186;8.644;2022-10-16T15:56:39;4.57;;;2.03;;
44658;SDS011;30378;50.186;8.644;2022-10-16T15:59:06;3.78;;;1.67;;
44658;SDS011;30378;50.186;8.644;2022-10-16T16:01:34;3.30;;;1.48;;
44658;SDS011;30378;50.186;8.644;2022-10-16T16:04:01;6.43;;;1.63;;
44658;SDS011;30378;50.186;8.644;2022-10-16T16:06:30;5.78;;;2.03;;
44658;SDS011;30378;50.186;8.644;2022-10-16T16:08:57;4.38;;;2.00;;
44658;SDS011;30378;50.186;8.644;2022-10-16T16:11:26;5.15;;;2.60;;
44658;SDS011;30378;50.186;8.644;2022-10-16T16:13:53;4.55;;;1.98;;
44658;SDS011;30378;50.186;8.644;2022-10-16T16:16:21;4.47;;;1.90;;
44658;SDS011;30378;50.186;8.644;2022-10-16T16:18:48;4.68;;;2.00;;
44658;SDS011;30378;50.186;8.644;2022-10-16T16:21:19;3.58;;;1.90;;
44658;SDS011;30378;50.186;8.644;2022-10-16T16:23:47;5.50;;;1.77;;
44658;SDS011;30378;50.186;8.644;2022-10-16T16:28:42;6.40;;;2.33;;
44658;SDS011;30378;50.186;8.644;2022-10-16T16:31:09;3.42;;;1.55;;
44658;SDS011;30378;50.186;8.644;2022-10-16T16:33:36;4.28;;;1.60;;
44658;SDS011;30378;50.186;8.644;2022-10-16T16:36:04;3.08;;;1.33;;
44658;SDS011;30378;50.186;8.644;2022-10-16T16:38:34;4.97;;;1.95;;
44658;SDS011;30378;50.186;8.644;2022-10-16T16:41:14;6.55;;;2.50;;
44658;SDS011;30378;50.186;8.644;2022-10-16T16:43:46;6.10;;;2.00;;
44658;SDS011;30378;50.186;8.644;2022-10-16T16:46:20;4.88;;;1.63;;
44658;SDS011;30378;50.186;8.644;2022-10-16T16:48:48;4.28;;;2.05;;
44658;SDS011;30378;50.186;8.644;2022-10-16T16:51:21;5.45;;;2.33;;
44658;SDS011;30378;50.186;8.644;2022-10-16T16:53:49;3.65;;;2.17;;
44658;SDS011;30378;50.186;8.644;2022-10-16T16:56:18;5.10;;;2.22;;
44658;SDS011;30378;50.186;8.644;2022-10-16T16:58:49;5.07;;;1.83;;
44658;SDS011;30378;50.186;8.644;2022-10-16T17:01:17;4.70;;;1.85;;
44658;SDS011;30378;50.186;8.644;2022-10-16T17:03:45;4.90;;;2.20;;
44658;SDS011;30378;50.186;8.644;2022-10-16T17:06:15;4.82;;;2.20;;
44658;SDS011;30378;50.186;8.644;2022-10-16T17:08:44;7.95;;;2.53;;
44658;SDS011;30378;50.186;8.644;2022-10-16T17:11:15;8.93;;;4.50;;
44658;SDS011;30378;50.186;8.644;2022-10-16T17:13:43;7.38;;;1.90;;
44658;SDS011;30378;50.186;8.644;2022-10-16T17:16:11;4.80;;;3.03;;
44658;SDS011;30378;50.186;8.644;2022-10-16T17:18:38;8.23;;;2.60;;
44658;SDS011;30378;50.186;8.644;2022-10-16T17:21:07;7.47;;;2.17;;
44658;SDS011;30378;50.186;8.644;2022-10-16T17:23:35;5.53;;;2.22;;
44658;SDS011;30378;50.186;8.644;2022-10-16T17:26:10;4.68;;;2.75;;
44658;SDS011;30378;50.186;8.644;2022-10-16T17:28:41;3.70;;;2.42;;
44658;SDS011;30378;50.186;8.644;2022-10-16T17:31:09;7.00;;;3.25;;
44658;SDS011;30378;50.186;8.644;2022-10-16T17:33:41;4.97;;;2.10;;
44658;SDS011;30378;50.186;8.644;2022-10-16T17:36:09;7.22;;;2.83;;
44658;SDS011;30378;50.186;8.644;2022-10-16T17:38:37;5.97;;;2.50;;
44658;SDS011;30378;50.186;8.644;2022-10-16T17:41:17;5.03;;;2.75;;
44658;SDS011;30378;50.186;8.644;2022-10-16T17:43:46;5.40;;;2.80;;
44658;SDS011;30378;50.186;8.644;2022-10-16T17:46:14;5.53;;;2.40;;
44658;SDS011;30378;50.186;8.644;2022-10-16T17:48:47;5.82;;;2.97;;
44658;SDS011;30378;50.186;8.644;2022-10-16T17:51:21;6.82;;;2.70;;
44658;SDS011;30378;50.186;8.644;2022-10-16T17:53:53;5.60;;;2.70;;
44658;SDS011;30378;50.186;8.644;2022-10-16T17:56:22;4.50;;;2.70;;
44658;SDS011;30378;50.186;8.644;2022-10-16T17:58:51;4.10;;;2.72;;
44658;SDS011;30378;50.186;8.644;2022-10-16T18:01:27;4.13;;;2.70;;
44658;SDS011;30378;50.186;8.644;2022-10-16T18:03:59;6.95;;;2.60;;
44658;SDS011;30378;50.186;8.644;2022-10-16T18:06:32;5.90;;;2.42;;
44658;SDS011;30378;50.186;8.644;2022-10-16T18:09:01;5.63;;;3.10;;
44658;SDS011;30378;50.186;8.644;2022-10-16T18:11:29;6.85;;;3.30;;
44658;SDS011;30378;50.186;8.644;2022-10-16T18:13:57;5.97;;;3.22;;
44658;SDS011;30378;50.186;8.644;2022-10-16T18:16:25;4.90;;;2.88;;
44658;SDS011;30378;50.186;8.644;2022-10-16T18:18:54;9.13;;;3.00;;
44658;SDS011;30378;50.186;8.644;2022-10-16T18:21:22;5.78;;;3.15;;
44658;SDS011;30378;50.186;8.644;2022-10-16T18:23:53;6.45;;;3.40;;
44658;SDS011;30378;50.186;8.644;2022-10-16T18:26:20;7.00;;;3.63;;
44658;SDS011;30378;50.186;8.644;2022-10-16T18:28:52;7.68;;;3.58;;
44658;SDS011;30378;50.186;8.644;2022-10-16T18:31:22;7.85;;;3.13;;
44658;SDS011;30378;50.186;8.644;2022-10-16T18:33:51;7.15;;;3.80;;
44658;SDS011;30378;50.186;8.644;2022-10-16T18:36:20;5.90;;;3.70;;
44658;SDS011;30378;50.186;8.644;2022-10-16T18:38:50;7.55;;;3.50;;
44658;SDS011;30378;50.186;8.644;2022-10-16T18:41:17;7.22;;;3.67;;
44658;SDS011;30378;50.186;8.644;2022-10-16T18:43:45;6.72;;;3.58;;
44658;SDS011;30378;50.186;8.644;2022-10-16T18:46:13;7.72;;;4.05;;
44658;SDS011;30378;50.186;8.644;2022-10-16T18:48:46;9.80;;;4.43;;
44658;SDS011;30378;50.186;8.644;2022-10-16T18:51:18;10.68;;;4.80;;